createdAt,value
2018-09-19T00:01:12.501Z,3.17
2018-09-19T00:03:42.535Z,3.77
2018-09-19T00:06:12.549Z,3.90
2018-09-19T00:08:42.503Z,3.77
2018-09-19T00:11:12.478Z,3.73
2018-09-19T00:13:42.550Z,3.70
2018-09-19T00:16:12.605Z,3.63
2018-09-19T00:18:42.554Z,3.20
2018-09-19T00:21:12.572Z,3.33
2018-09-19T00:23:42.600Z,3.27
2018-09-19T00:26:12.621Z,2.97
2018-09-19T00:28:42.645Z,3.00
2018-09-19T00:31:12.803Z,2.80
2018-09-19T00:33:42.827Z,3.20
2018-09-19T00:36:12.754Z,3.20
2018-09-19T00:38:42.797Z,2.97
2018-09-19T00:41:12.799Z,3.40
2018-09-19T00:43:42.822Z,3.57
2018-09-19T00:46:12.726Z,3.53
2018-09-19T00:48:42.959Z,3.33
2018-09-19T00:51:12.995Z,3.30
2018-09-19T00:53:43.020Z,3.13
2018-09-19T00:56:13.007Z,3.67
2018-09-19T00:58:43.001Z,3.23
2018-09-19T01:01:12.937Z,3.13
2018-09-19T01:03:42.954Z,3.27
2018-09-19T01:06:12.945Z,3.20
2018-09-19T01:08:42.957Z,2.90
2018-09-19T01:11:12.956Z,2.80
2018-09-19T01:13:43.028Z,2.90
2018-09-19T01:16:13.014Z,2.90
2018-09-19T01:18:43.052Z,3.30
2018-09-19T01:21:13.018Z,3.20
2018-09-19T01:23:43.205Z,3.17
2018-09-19T01:26:13.213Z,3.10
2018-09-19T01:28:43.222Z,3.10
2018-09-19T01:31:13.314Z,3.27
2018-09-19T01:33:43.313Z,2.97
2018-09-19T01:36:13.344Z,3.27
2018-09-19T01:38:43.370Z,3.13
2018-09-19T01:41:13.360Z,3.30
2018-09-19T01:43:43.371Z,2.60
2018-09-19T01:46:13.338Z,2.53
2018-09-19T01:48:43.350Z,2.67
2018-09-19T01:51:13.351Z,3.13
2018-09-19T01:53:43.362Z,3.17
2018-09-19T01:56:13.390Z,2.53
2018-09-19T01:58:43.494Z,2.80
2018-09-19T02:01:13.501Z,2.80
2018-09-19T02:03:43.929Z,2.93
2018-09-19T02:06:13.967Z,3.27
2018-09-19T02:08:44.017Z,3.40
2018-09-19T02:11:14.036Z,3.40
2018-09-19T02:13:44.068Z,3.00
2018-09-19T02:16:14.095Z,2.53
2018-09-19T02:18:44.801Z,3.43
2018-09-19T02:21:14.878Z,3.30
2018-09-19T02:23:44.936Z,3.90
2018-09-19T02:26:14.899Z,3.60
2018-09-19T02:28:44.946Z,3.63
2018-09-19T02:31:15.177Z,3.97
2018-09-19T02:33:45.233Z,3.43
2018-09-19T02:36:19.289Z,3.80
2018-09-19T02:38:49.290Z,3.40
2018-09-19T02:41:19.816Z,3.50
2018-09-19T02:43:50.337Z,4.13
2018-09-19T02:46:20.398Z,3.80
2018-09-19T02:48:50.520Z,3.70
2018-09-19T02:51:20.479Z,3.67
2018-09-19T02:53:50.481Z,3.40
2018-09-19T02:56:20.517Z,4.03
2018-09-19T02:58:50.566Z,3.90
2018-09-19T03:01:20.477Z,3.57
2018-09-19T03:03:50.422Z,3.90
2018-09-19T03:06:20.321Z,3.87
2018-09-19T03:08:50.334Z,3.57
2018-09-19T03:11:20.218Z,3.60
2018-09-19T03:13:50.094Z,4.10
2018-09-19T03:16:19.947Z,5.87
2018-09-19T03:18:49.804Z,4.23
2018-09-19T03:21:19.711Z,4.10
2018-09-19T03:23:49.762Z,4.13
2018-09-19T03:26:19.817Z,4.13
2018-09-19T03:28:49.796Z,3.70
2018-09-19T03:31:19.794Z,4.10
2018-09-19T03:33:49.824Z,4.73
2018-09-19T03:36:19.904Z,4.30
2018-09-19T03:38:50.160Z,4.33
2018-09-19T03:41:20.436Z,4.43
2018-09-19T03:43:50.361Z,3.93
2018-09-19T03:46:20.353Z,4.17
2018-09-19T03:48:50.381Z,4.37
2018-09-19T03:51:28.744Z,4.13
2018-09-19T03:53:58.749Z,4.73
2018-09-19T03:56:28.673Z,4.40
2018-09-19T03:58:58.811Z,4.43
2018-09-19T04:01:28.794Z,4.73
2018-09-19T04:03:58.888Z,4.50
2018-09-19T04:06:28.895Z,4.60
2018-09-19T04:08:58.918Z,4.63
2018-09-19T04:11:29.014Z,4.23
2018-09-19T04:13:58.968Z,4.27
2018-09-19T04:16:28.936Z,4.50
2018-09-19T04:18:58.871Z,4.30
2018-09-19T04:21:28.902Z,4.43
2018-09-19T04:23:58.801Z,4.70
2018-09-19T04:26:28.876Z,4.37
2018-09-19T04:28:58.869Z,4.43
2018-09-19T04:31:28.937Z,4.53
2018-09-19T04:33:58.857Z,4.53
2018-09-19T04:36:28.818Z,4.27
2018-09-19T04:38:58.970Z,4.60
2018-09-19T04:41:28.996Z,4.90
2018-09-19T04:43:58.941Z,4.37
2018-09-19T04:46:29.114Z,4.10
2018-09-19T04:48:59.098Z,4.13
2018-09-19T04:51:29.142Z,4.07
2018-09-19T04:53:59.193Z,4.37
2018-09-19T04:56:29.447Z,4.73
2018-09-19T04:58:59.678Z,3.80
2018-09-19T05:01:29.770Z,4.57
2018-09-19T05:03:59.907Z,4.90
2018-09-19T05:06:29.943Z,4.73
2018-09-19T05:08:59.902Z,4.60
2018-09-19T05:11:30.060Z,4.63
2018-09-19T05:14:00.055Z,4.50
2018-09-19T05:16:30.043Z,4.20
2018-09-19T05:19:00.076Z,5.17
2018-09-19T05:21:30.095Z,4.40
2018-09-19T05:24:00.131Z,4.73
2018-09-19T05:26:30.112Z,4.80
2018-09-19T05:29:00.159Z,5.13
2018-09-19T05:31:30.406Z,4.50
2018-09-19T05:34:00.437Z,4.90
2018-09-19T05:36:30.456Z,4.43
2018-09-19T05:39:00.456Z,4.23
2018-09-19T05:41:30.472Z,4.43
2018-09-19T05:44:00.437Z,4.40
2018-09-19T05:46:30.712Z,4.90
2018-09-19T05:49:00.769Z,5.20
2018-09-19T05:51:30.774Z,5.03
2018-09-19T05:54:00.822Z,5.10
2018-09-19T05:56:30.820Z,5.10
2018-09-19T05:59:00.833Z,4.40
2018-09-19T06:01:30.770Z,4.93
2018-09-19T06:04:00.756Z,5.30
2018-09-19T06:06:30.742Z,4.90
2018-09-19T06:09:00.697Z,4.67
2018-09-19T06:11:30.715Z,4.67
2018-09-19T06:14:00.676Z,4.67
2018-09-19T06:16:30.774Z,5.43
2018-09-19T06:19:00.808Z,5.53
2018-09-19T06:21:30.999Z,5.13
2018-09-19T06:24:01.007Z,6.07
2018-09-19T06:26:31.385Z,5.93
2018-09-19T06:29:01.326Z,5.40
2018-09-19T06:31:31.482Z,6.03
2018-09-19T06:34:01.531Z,4.87
2018-09-19T06:36:31.561Z,5.47
2018-09-19T06:39:01.514Z,5.53
2018-09-19T06:41:31.503Z,5.00
2018-09-19T06:44:01.501Z,5.50
2018-09-19T06:46:31.541Z,5.40
2018-09-19T06:49:01.609Z,5.43
2018-09-19T06:51:31.655Z,6.07
2018-09-19T06:54:01.642Z,5.80
2018-09-19T06:56:31.804Z,5.33
2018-09-19T06:59:01.811Z,5.23
2018-09-19T07:01:31.855Z,5.87
2018-09-19T07:04:01.872Z,5.43
2018-09-19T07:06:31.953Z,5.00
2018-09-19T07:09:01.915Z,5.20
2018-09-19T07:11:32.200Z,4.87
2018-09-19T07:14:02.194Z,4.77
2018-09-19T07:16:32.458Z,4.63
2018-09-19T07:19:02.541Z,4.80
2018-09-19T07:21:32.533Z,3.93
2018-09-19T07:24:02.560Z,4.47
2018-09-19T07:26:32.606Z,4.20
2018-09-19T07:29:02.648Z,4.03
2018-09-19T07:31:32.678Z,4.00
2018-09-19T07:34:02.876Z,3.80
2018-09-19T07:36:32.914Z,4.30
2018-09-19T07:39:03.039Z,4.17
2018-09-19T07:41:33.062Z,4.80
2018-09-19T07:44:03.042Z,3.30
2018-09-19T07:46:33.101Z,4.30
2018-09-19T07:49:03.060Z,3.53
2018-09-19T07:51:33.056Z,3.63
2018-09-19T07:54:03.000Z,4.40
2018-09-19T07:56:38.570Z,3.70
2018-09-19T07:59:08.894Z,3.47
2018-09-19T08:01:38.875Z,3.40
2018-09-19T08:04:09.050Z,3.60
2018-09-19T08:06:39.036Z,4.10
2018-09-19T08:09:10.237Z,3.83
2018-09-19T08:11:40.240Z,3.50
2018-09-19T08:14:10.218Z,3.50
2018-09-19T08:16:40.164Z,4.07
2018-09-19T08:19:10.266Z,3.60
2018-09-19T08:21:40.309Z,4.67
2018-09-19T08:24:10.310Z,3.77
2018-09-19T08:26:40.217Z,4.27
2018-09-19T08:29:10.201Z,3.77
2018-09-19T08:31:40.181Z,4.33
2018-09-19T08:34:10.186Z,5.00
2018-09-19T08:36:40.085Z,4.70
2018-09-19T08:39:11.203Z,4.53
2018-09-19T08:41:41.199Z,4.80
2018-09-19T08:44:11.197Z,4.63
2018-09-19T08:46:41.218Z,4.90
2018-09-19T08:49:11.127Z,5.13
2018-09-19T08:51:41.184Z,5.30
2018-09-19T08:54:11.242Z,5.37
2018-09-19T08:56:41.255Z,5.08
2018-09-19T08:59:11.307Z,5.27
2018-09-19T09:01:41.323Z,5.20
2018-09-19T09:04:11.339Z,4.80
2018-09-19T09:06:41.319Z,4.75
2018-09-19T09:09:11.372Z,4.50
2018-09-19T09:11:41.439Z,5.03
2018-09-19T09:14:11.530Z,3.75
2018-09-19T09:16:41.448Z,4.40
2018-09-19T09:19:11.475Z,4.33
2018-09-19T09:21:41.388Z,4.17
2018-09-19T09:24:11.444Z,4.22
2018-09-19T09:26:41.440Z,3.70
2018-09-19T09:29:11.415Z,3.40
2018-09-19T09:31:41.392Z,3.85
2018-09-19T09:34:11.373Z,4.03
2018-09-19T09:36:41.395Z,3.85
2018-09-19T09:39:11.431Z,3.22
2018-09-19T09:41:41.444Z,3.30
2018-09-19T09:44:11.458Z,2.98
2018-09-19T09:46:41.438Z,2.98
2018-09-19T09:49:11.475Z,3.45
2018-09-19T09:51:41.378Z,3.35
2018-09-19T09:54:11.371Z,3.30
2018-09-19T09:56:41.375Z,3.62
2018-09-19T09:59:11.429Z,3.00
2018-09-19T10:01:41.446Z,2.58
2018-09-19T10:04:11.817Z,3.22
2018-09-19T10:06:41.860Z,2.75
2018-09-19T10:09:11.814Z,2.85
2018-09-19T10:11:41.782Z,3.00
2018-09-19T10:14:11.788Z,3.08
2018-09-19T10:16:41.781Z,2.65
2018-09-19T10:19:11.818Z,3.10
2018-09-19T10:21:41.793Z,2.55
2018-09-19T10:24:11.862Z,2.85
2018-09-19T10:26:41.841Z,2.65
2018-09-19T10:29:12.067Z,2.80
2018-09-19T10:31:42.160Z,3.12
2018-09-19T10:34:12.189Z,2.87
2018-09-19T10:36:42.111Z,2.85
2018-09-19T10:39:12.214Z,3.05
2018-09-19T10:41:42.157Z,2.90
2018-09-19T10:44:12.211Z,2.95
2018-09-19T10:46:42.211Z,2.35
2018-09-19T10:49:12.218Z,3.12
2018-09-19T10:51:42.289Z,3.08
2018-09-19T10:54:12.327Z,3.12
2018-09-19T10:56:42.237Z,2.95
2018-09-19T10:59:12.240Z,2.87
2018-09-19T11:01:42.224Z,2.90
2018-09-19T11:04:12.342Z,2.98
2018-09-19T11:06:42.312Z,3.30
2018-09-19T11:09:12.920Z,2.83
2018-09-19T11:11:43.339Z,3.25
2018-09-19T11:14:13.359Z,2.80
2018-09-19T11:16:43.342Z,3.58
2018-09-19T11:19:13.361Z,3.60
2018-09-19T11:21:43.452Z,3.65
2018-09-19T11:24:13.772Z,3.60
2018-09-19T11:26:43.739Z,3.45
2018-09-19T11:29:13.893Z,3.65
2018-09-19T11:31:44.019Z,3.47
2018-09-19T11:34:14.054Z,3.72
2018-09-19T11:36:44.096Z,3.65
2018-09-19T11:39:14.260Z,3.50
2018-09-19T11:41:44.372Z,3.45
2018-09-19T11:44:14.415Z,3.77
2018-09-19T11:46:44.428Z,3.40
2018-09-19T11:49:14.300Z,3.40
2018-09-19T11:51:44.336Z,3.40
2018-09-19T11:54:14.342Z,3.50
2018-09-19T11:56:44.351Z,4.20
2018-09-19T11:59:14.398Z,3.75
2018-09-19T12:01:44.454Z,3.45
2018-09-19T12:04:14.501Z,3.72
2018-09-19T12:06:44.564Z,3.25
2018-09-19T12:09:14.682Z,3.92
2018-09-19T12:11:44.718Z,3.62
2018-09-19T12:14:14.781Z,4.10
2018-09-19T12:16:44.872Z,3.42
2018-09-19T12:19:14.867Z,4.00
2018-09-19T12:21:44.852Z,3.67
2018-09-19T12:24:14.804Z,5.47
2018-09-19T12:26:44.901Z,6.37
2018-09-19T12:29:14.822Z,3.60
2018-09-19T12:31:45.087Z,3.72
2018-09-19T12:34:15.172Z,3.50
2018-09-19T12:36:45.212Z,3.52
2018-09-19T12:39:15.362Z,3.27
2018-09-19T12:41:45.416Z,3.35
2018-09-19T12:44:15.380Z,2.85
2018-09-19T12:46:45.405Z,3.60
2018-09-19T12:49:15.545Z,3.00
2018-09-19T12:51:45.599Z,3.00
2018-09-19T12:54:15.657Z,2.92
2018-09-19T12:56:45.716Z,3.60
2018-09-19T12:59:15.826Z,3.42
2018-09-19T13:01:45.911Z,4.20
2018-09-19T13:04:16.029Z,3.52
2018-09-19T13:06:46.158Z,3.20
2018-09-19T13:09:16.151Z,3.05
2018-09-19T13:11:46.193Z,3.20
2018-09-19T13:14:16.150Z,3.58
2018-09-19T13:16:46.140Z,3.30
2018-09-19T13:19:20.009Z,3.00
2018-09-19T13:21:51.731Z,3.05
2018-09-19T13:24:21.708Z,3.47
2018-09-19T13:26:51.760Z,2.75
2018-09-19T13:29:21.822Z,3.20
2018-09-19T13:31:52.403Z,3.17
2018-09-19T13:34:22.423Z,3.52
2018-09-19T13:36:54.095Z,3.30
2018-09-19T13:39:24.116Z,2.90
2018-09-19T13:41:54.251Z,3.20
2018-09-19T13:44:24.241Z,3.33
2018-09-19T13:46:54.558Z,3.05
2018-09-19T13:49:29.980Z,3.30
2018-09-19T13:51:59.937Z,3.22
2018-09-19T13:54:29.983Z,3.05
2018-09-19T13:56:59.988Z,3.10
2018-09-19T13:59:29.941Z,3.08
2018-09-19T14:01:59.965Z,2.83
2018-09-19T14:04:29.911Z,2.95
2018-09-19T14:06:59.928Z,3.02
2018-09-19T14:09:29.911Z,2.90
2018-09-19T14:11:59.957Z,3.42
2018-09-19T14:14:29.965Z,3.27
2018-09-19T14:16:59.960Z,2.95
2018-09-19T14:19:30.039Z,2.52
2018-09-19T14:22:00.105Z,3.25
2018-09-19T14:24:30.152Z,2.77
2018-09-19T14:27:00.243Z,3.10
2018-09-19T14:29:30.358Z,3.10
2018-09-19T14:32:00.411Z,2.90
2018-09-19T14:34:30.464Z,3.55
2018-09-19T14:37:00.497Z,3.45
2018-09-19T14:39:30.596Z,2.80
2018-09-19T14:42:00.622Z,3.40
2018-09-19T14:44:30.510Z,3.00
2018-09-19T14:47:00.549Z,3.08
2018-09-19T14:49:30.600Z,3.00
2018-09-19T14:52:00.915Z,3.65
2018-09-19T14:54:31.058Z,3.10
2018-09-19T14:57:00.959Z,3.30
2018-09-19T14:59:30.878Z,3.15
2018-09-19T15:02:00.821Z,3.22
2018-09-19T15:04:30.821Z,3.37
2018-09-19T15:07:00.793Z,3.42
2018-09-19T15:09:30.750Z,3.30
2018-09-19T15:12:00.799Z,3.12
2018-09-19T15:14:30.809Z,3.25
2018-09-19T15:17:00.860Z,2.98
2018-09-19T15:19:30.901Z,3.30
2018-09-19T15:22:00.961Z,3.47
2018-09-19T15:24:30.965Z,2.92
2018-09-19T15:27:01.050Z,3.12
2018-09-19T15:29:31.059Z,2.80
2018-09-19T15:32:01.142Z,2.98
2018-09-19T15:34:31.174Z,2.55
2018-09-19T15:37:01.203Z,2.98
2018-09-19T15:39:31.289Z,3.77
2018-09-19T15:42:01.256Z,2.85
2018-09-19T15:44:31.441Z,3.05
2018-09-19T15:47:01.495Z,3.08
2018-09-19T15:49:31.514Z,2.55
2018-09-19T15:52:01.527Z,2.95
2018-09-19T15:54:31.501Z,2.65
2018-09-19T15:57:01.543Z,2.85
2018-09-19T15:59:31.690Z,3.05
2018-09-19T16:02:01.701Z,3.33
2018-09-19T16:04:31.756Z,3.40
2018-09-19T16:07:01.938Z,2.80
2018-09-19T16:09:32.064Z,3.33
2018-09-19T16:12:03.534Z,3.10
2018-09-19T16:14:34.598Z,3.10
2018-09-19T16:17:05.665Z,3.05
2018-09-19T16:19:35.650Z,3.33
2018-09-19T16:22:06.155Z,3.10
2018-09-19T16:24:37.480Z,3.12
2018-09-19T16:27:08.734Z,3.27
2018-09-19T16:29:39.331Z,2.58
2018-09-19T16:32:09.327Z,2.77
2018-09-19T16:34:39.589Z,2.80
2018-09-19T16:37:09.674Z,2.70
2018-09-19T16:39:39.694Z,3.20
2018-09-19T16:42:09.754Z,3.00
2018-09-19T16:44:39.654Z,2.72
2018-09-19T16:47:09.661Z,2.80
2018-09-19T16:49:39.646Z,2.98
2018-09-19T16:52:09.648Z,3.10
2018-09-19T16:54:39.922Z,3.45
2018-09-19T16:57:10.226Z,2.50
2018-09-19T16:59:40.358Z,2.62
2018-09-19T17:02:16.260Z,3.87
2018-09-19T17:04:46.263Z,2.87
2018-09-19T17:07:16.155Z,3.05
2018-09-19T17:09:46.270Z,2.95
2018-09-19T17:12:16.230Z,3.47
2018-09-19T17:14:46.544Z,2.70
2018-09-19T17:17:17.415Z,2.77
2018-09-19T17:19:47.859Z,2.64
2018-09-19T17:22:17.907Z,2.85
2018-09-19T17:24:47.821Z,3.15
2018-09-19T17:27:17.774Z,3.02
2018-09-19T17:29:47.643Z,3.40
2018-09-19T17:32:17.723Z,3.15
2018-09-19T17:34:50.627Z,2.80
2018-09-19T17:37:20.841Z,3.25
2018-09-19T17:39:50.766Z,2.85
2018-09-19T17:42:20.689Z,3.17
2018-09-19T17:44:50.614Z,3.02
2018-09-19T17:47:20.777Z,2.77
2018-09-19T17:49:50.835Z,2.80
2018-09-19T17:52:20.960Z,3.02
2018-09-19T17:54:50.966Z,2.75
2018-09-19T17:57:20.881Z,3.95
2018-09-19T17:59:50.886Z,2.70
2018-09-19T18:02:20.922Z,3.27
2018-09-19T18:04:50.871Z,2.90
2018-09-19T18:07:20.933Z,2.90
2018-09-19T18:09:51.217Z,2.60
2018-09-19T18:12:21.306Z,2.98
2018-09-19T18:14:51.259Z,3.15
2018-09-19T18:17:21.369Z,2.90
2018-09-19T18:19:51.780Z,3.42
2018-09-19T18:22:21.929Z,3.08
2018-09-19T18:24:51.820Z,3.10
2018-09-19T18:27:21.834Z,3.50
2018-09-19T18:29:51.958Z,2.77
2018-09-19T18:32:22.017Z,3.22
2018-09-19T18:34:52.197Z,3.25
2018-09-19T18:37:22.179Z,3.00
2018-09-19T18:39:52.243Z,3.62
2018-09-19T18:42:22.172Z,3.58
2018-09-19T18:44:52.207Z,3.42
2018-09-19T18:47:22.098Z,3.50
2018-09-19T18:49:52.160Z,3.90
2018-09-19T18:52:22.190Z,3.50
2018-09-19T18:54:52.141Z,3.37
2018-09-19T18:57:22.436Z,3.40
2018-09-19T18:59:53.178Z,3.58
2018-09-19T19:02:23.706Z,3.45
2018-09-19T19:04:54.037Z,3.80
2018-09-19T19:07:24.353Z,3.25
2018-09-19T19:09:54.780Z,3.70
2018-09-19T19:12:25.275Z,3.62
2018-09-19T19:14:55.846Z,3.47
2018-09-19T19:17:26.405Z,3.52
2018-09-19T19:19:56.989Z,3.37
2018-09-19T19:22:27.547Z,3.60
2018-09-19T19:24:58.123Z,3.77
2018-09-19T19:27:28.648Z,3.35
2018-09-19T19:29:58.930Z,3.57
2018-09-19T19:32:29.121Z,3.37
2018-09-19T19:34:59.159Z,3.80
2018-09-19T19:37:29.555Z,3.55
2018-09-19T19:39:59.713Z,3.40
2018-09-19T19:42:29.718Z,3.58
2018-09-19T19:44:59.648Z,3.67
2018-09-19T19:47:29.659Z,3.25
2018-09-19T19:49:59.782Z,3.27
2018-09-19T19:52:29.906Z,3.52
2018-09-19T19:55:00.407Z,3.03
2018-09-19T19:57:31.019Z,3.40
2018-09-19T20:00:01.487Z,3.40
2018-09-19T20:02:31.847Z,3.25
2018-09-19T20:05:02.320Z,3.43
2018-09-19T20:07:32.562Z,3.17
2018-09-19T20:10:02.845Z,3.17
2018-09-19T20:12:32.912Z,3.52
2018-09-19T20:15:02.958Z,3.43
2018-09-19T20:17:33.023Z,3.72
2018-09-19T20:20:02.953Z,3.17
2018-09-19T20:22:32.972Z,3.40
2018-09-19T20:25:03.070Z,3.20
2018-09-19T20:27:33.169Z,3.08
2018-09-19T20:30:03.173Z,3.60
2018-09-19T20:32:33.126Z,3.20
2018-09-19T20:35:03.081Z,3.67
2018-09-19T20:37:33.097Z,3.52
2018-09-19T20:40:03.163Z,3.40
2018-09-19T20:42:33.134Z,3.55
2018-09-19T20:45:03.093Z,3.12
2018-09-19T20:47:33.061Z,3.12
2018-09-19T20:50:03.046Z,3.53
2018-09-19T20:52:33.081Z,2.70
2018-09-19T20:55:03.117Z,3.27
2018-09-19T20:57:33.410Z,3.62
2018-09-19T21:00:03.503Z,3.40
2018-09-19T21:02:33.568Z,3.20
2018-09-19T21:05:03.674Z,3.47
2018-09-19T21:07:33.671Z,3.15
2018-09-19T21:10:03.855Z,3.40
2018-09-19T21:12:33.818Z,3.60
2018-09-19T21:15:03.844Z,3.27
2018-09-19T21:17:33.800Z,3.63
2018-09-19T21:20:03.710Z,3.40
2018-09-19T21:22:33.762Z,3.50
2018-09-19T21:25:03.719Z,3.40
2018-09-19T21:27:33.758Z,3.83
2018-09-19T21:30:03.991Z,3.87
2018-09-19T21:32:33.975Z,3.50
2018-09-19T21:35:03.921Z,3.67
2018-09-19T21:37:33.898Z,3.77
2018-09-19T21:40:03.930Z,3.57
2018-09-19T21:42:33.949Z,3.55
2018-09-19T21:45:03.973Z,3.53
2018-09-19T21:47:36.876Z,3.52
2018-09-19T21:50:07.030Z,3.65
2018-09-19T21:52:37.029Z,4.10
2018-09-19T21:55:07.029Z,4.10
2018-09-19T21:57:37.129Z,3.37
2018-09-19T22:00:08.799Z,3.75
2018-09-19T22:02:38.644Z,3.37
2018-09-19T22:05:08.802Z,3.92
2018-09-19T22:07:38.740Z,3.40
2018-09-19T22:10:08.721Z,3.50
2018-09-19T22:12:38.769Z,3.20
2018-09-19T22:15:08.845Z,3.50
2018-09-19T22:17:38.790Z,3.13
2018-09-19T22:20:08.929Z,3.20
2018-09-19T22:22:38.833Z,3.60
2018-09-19T22:25:08.891Z,2.98
2018-09-19T22:27:38.939Z,3.30
2018-09-19T22:30:09.069Z,3.20
2018-09-19T22:32:39.019Z,3.27
2018-09-19T22:35:09.069Z,3.27
2018-09-19T22:37:39.009Z,3.25
2018-09-19T22:40:09.054Z,2.93
2018-09-19T22:42:39.039Z,3.50
2018-09-19T22:45:09.058Z,3.40
2018-09-19T22:47:39.189Z,3.33
2018-09-19T22:50:09.244Z,3.70
2018-09-19T22:52:39.170Z,3.23
2018-09-19T22:55:09.212Z,3.42
2018-09-19T22:57:39.220Z,3.23
2018-09-19T23:00:09.313Z,3.17
2018-09-19T23:02:53.393Z,3.60
2018-09-19T23:05:23.388Z,3.60
2018-09-19T23:07:53.372Z,3.37
2018-09-19T23:10:23.349Z,3.17
2018-09-19T23:12:53.285Z,3.33
2018-09-19T23:15:23.312Z,3.23
2018-09-19T23:17:53.339Z,3.37
2018-09-19T23:20:29.910Z,3.00
2018-09-19T23:22:59.910Z,3.63
2018-09-19T23:25:29.898Z,3.53
2018-09-19T23:27:59.952Z,3.80
2018-09-19T23:30:29.912Z,3.07
2018-09-19T23:32:59.855Z,3.43
2018-09-19T23:35:29.928Z,3.70
2018-09-19T23:37:59.965Z,3.27
2018-09-19T23:40:30.041Z,3.43
2018-09-19T23:43:00.043Z,3.70
2018-09-19T23:45:30.104Z,4.07
2018-09-19T23:48:00.148Z,3.97
2018-09-19T23:50:30.245Z,3.60
2018-09-19T23:53:00.294Z,3.40
2018-09-19T23:55:30.376Z,3.77
2018-09-19T23:58:00.470Z,4.00
